Oilton, Texas
Current Conditions -  °F | °C
As of 11:35 PM on Wednesday 26 Nov 2014 (Local Time) from KHBV Reporting Station
Clear Clear  
Wind Chill: 52°   Ceiling: Unl
Heat Index: 52°   Visibility: 10mi
Dew Point: 37°   Wind: 0mph
Humidity: 56%   Direction: NA
Pressure: 30.31"   Gusts: NA
Location:  27.47°N, 98.97°W
Report Text: KHBV 270535Z AUTO 00000KT 10SM CLR 11/03 A3031 RMK AO2 T01120026
Loading
Personal Weather Stations






























Interactive Weather Map New forecast layout! Learn more

10-Day Weather Forecast

Advertisements
Track Severe Weather on mobile